sensor_id;sensor_type;location;lat;lon;timestamp;temperature;humidity
11824;DHT22;5969;50.780;7.726;2023-08-06T00:01:52;14.70;99.90
11824;DHT22;5969;50.780;7.726;2023-08-06T00:04:18;14.60;99.90
11824;DHT22;5969;50.780;7.726;2023-08-06T00:06:46;14.70;99.90
11824;DHT22;5969;50.780;7.726;2023-08-06T00:09:14;14.70;99.90
11824;DHT22;5969;50.780;7.726;2023-08-06T00:11:40;14.60;99.90
11824;DHT22;5969;50.780;7.726;2023-08-06T00:14:09;14.70;99.90
11824;DHT22;5969;50.780;7.726;2023-08-06T00:16:36;14.70;99.90
11824;DHT22;5969;50.780;7.726;2023-08-06T00:19:02;14.70;99.90
11824;DHT22;5969;50.780;7.726;2023-08-06T00:21:29;14.70;99.90
11824;DHT22;5969;50.780;7.726;2023-08-06T00:23:56;14.70;99.90
11824;DHT22;5969;50.780;7.726;2023-08-06T00:26:24;14.60;99.90
11824;DHT22;5969;50.780;7.726;2023-08-06T00:28:51;14.70;99.90
11824;DHT22;5969;50.780;7.726;2023-08-06T00:31:18;14.60;99.90
11824;DHT22;5969;50.780;7.726;2023-08-06T00:33:45;14.70;99.90
11824;DHT22;5969;50.780;7.726;2023-08-06T00:36:12;14.70;99.90
11824;DHT22;5969;50.780;7.726;2023-08-06T00:38:39;14.80;99.90
11824;DHT22;5969;50.780;7.726;2023-08-06T00:41:06;14.80;99.90
11824;DHT22;5969;50.780;7.726;2023-08-06T00:43:34;14.90;99.90
11824;DHT22;5969;50.780;7.726;2023-08-06T00:46:01;15.00;99.90
11824;DHT22;5969;50.780;7.726;2023-08-06T00:48:28;15.00;99.90
11824;DHT22;5969;50.780;7.726;2023-08-06T00:50:55;15.00;99.90
11824;DHT22;5969;50.780;7.726;2023-08-06T00:53:22;15.00;99.90
11824;DHT22;5969;50.780;7.726;2023-08-06T00:55:49;15.00;99.90
11824;DHT22;5969;50.780;7.726;2023-08-06T00:58:16;15.00;99.90
11824;DHT22;5969;50.780;7.726;2023-08-06T01:00:45;15.00;99.90
11824;DHT22;5969;50.780;7.726;2023-08-06T01:03:12;15.00;99.90
11824;DHT22;5969;50.780;7.726;2023-08-06T01:05:39;14.90;99.90
11824;DHT22;5969;50.780;7.726;2023-08-06T01:08:15;14.90;99.90
11824;DHT22;5969;50.780;7.726;2023-08-06T01:10:55;14.90;99.90
11824;DHT22;5969;50.780;7.726;2023-08-06T01:13:31;14.90;99.90
11824;DHT22;5969;50.780;7.726;2023-08-06T01:16:00;14.80;99.90
11824;DHT22;5969;50.780;7.726;2023-08-06T01:18:28;14.80;99.90
11824;DHT22;5969;50.780;7.726;2023-08-06T01:20:56;14.80;99.90
11824;DHT22;5969;50.780;7.726;2023-08-06T01:23:23;14.80;99.90
11824;DHT22;5969;50.780;7.726;2023-08-06T01:25:56;14.80;99.90
11824;DHT22;5969;50.780;7.726;2023-08-06T01:28:33;14.80;99.90
11824;DHT22;5969;50.780;7.726;2023-08-06T01:31:05;14.80;99.90
11824;DHT22;5969;50.780;7.726;2023-08-06T01:33:37;14.90;99.90
11824;DHT22;5969;50.780;7.726;2023-08-06T01:36:09;14.90;99.90
11824;DHT22;5969;50.780;7.726;2023-08-06T01:38:37;15.00;99.90
11824;DHT22;5969;50.780;7.726;2023-08-06T01:41:03;15.00;99.90
11824;DHT22;5969;50.780;7.726;2023-08-06T01:43:30;15.10;99.90
11824;DHT22;5969;50.780;7.726;2023-08-06T01:45:57;15.10;99.90
11824;DHT22;5969;50.780;7.726;2023-08-06T01:48:24;15.10;99.90
11824;DHT22;5969;50.780;7.726;2023-08-06T01:50:51;15.10;99.90
11824;DHT22;5969;50.780;7.726;2023-08-06T01:53:19;15.10;99.90
11824;DHT22;5969;50.780;7.726;2023-08-06T01:55:48;15.10;99.90
11824;DHT22;5969;50.780;7.726;2023-08-06T01:58:15;15.20;99.90
11824;DHT22;5969;50.780;7.726;2023-08-06T02:00:42;15.20;99.90
11824;DHT22;5969;50.780;7.726;2023-08-06T02:03:09;15.30;99.90
11824;DHT22;5969;50.780;7.726;2023-08-06T02:05:36;15.30;99.90
11824;DHT22;5969;50.780;7.726;2023-08-06T02:08:09;15.30;99.90
11824;DHT22;5969;50.780;7.726;2023-08-06T02:10:37;15.30;99.90
11824;DHT22;5969;50.780;7.726;2023-08-06T02:13:04;15.30;99.90
11824;DHT22;5969;50.780;7.726;2023-08-06T02:15:31;15.30;99.90
11824;DHT22;5969;50.780;7.726;2023-08-06T02:17:58;15.30;99.90
11824;DHT22;5969;50.780;7.726;2023-08-06T02:20:25;15.30;99.90
11824;DHT22;5969;50.780;7.726;2023-08-06T02:22:51;15.30;99.90
11824;DHT22;5969;50.780;7.726;2023-08-06T02:25:18;15.20;99.90
11824;DHT22;5969;50.780;7.726;2023-08-06T02:27:46;15.30;99.90
11824;DHT22;5969;50.780;7.726;2023-08-06T02:30:13;15.30;99.90
11824;DHT22;5969;50.780;7.726;2023-08-06T02:32:40;15.20;99.90
11824;DHT22;5969;50.780;7.726;2023-08-06T02:35:07;15.10;99.90
11824;DHT22;5969;50.780;7.726;2023-08-06T02:37:37;15.10;99.90
11824;DHT22;5969;50.780;7.726;2023-08-06T02:40:04;15.00;99.90
11824;DHT22;5969;50.780;7.726;2023-08-06T02:42:31;15.00;99.90
11824;DHT22;5969;50.780;7.726;2023-08-06T02:44:59;15.00;99.90
11824;DHT22;5969;50.780;7.726;2023-08-06T02:47:26;15.10;99.90
11824;DHT22;5969;50.780;7.726;2023-08-06T02:49:54;15.00;99.90
11824;DHT22;5969;50.780;7.726;2023-08-06T02:52:21;15.00;99.90
11824;DHT22;5969;50.780;7.726;2023-08-06T02:54:47;15.00;99.90
11824;DHT22;5969;50.780;7.726;2023-08-06T02:57:16;15.10;99.90
11824;DHT22;5969;50.780;7.726;2023-08-06T02:59:43;14.90;99.90
11824;DHT22;5969;50.780;7.726;2023-08-06T03:02:11;14.90;99.90
11824;DHT22;5969;50.780;7.726;2023-08-06T03:04:38;14.80;99.90
11824;DHT22;5969;50.780;7.726;2023-08-06T03:07:05;14.80;99.90
11824;DHT22;5969;50.780;7.726;2023-08-06T03:09:32;14.90;99.90
11824;DHT22;5969;50.780;7.726;2023-08-06T03:11:59;14.90;99.90
11824;DHT22;5969;50.780;7.726;2023-08-06T03:14:26;14.90;99.90
11824;DHT22;5969;50.780;7.726;2023-08-06T03:16:52;14.90;99.90
11824;DHT22;5969;50.780;7.726;2023-08-06T03:19:21;14.90;99.90
11824;DHT22;5969;50.780;7.726;2023-08-06T03:21:47;14.90;99.90
11824;DHT22;5969;50.780;7.726;2023-08-06T03:24:14;14.90;99.90
11824;DHT22;5969;50.780;7.726;2023-08-06T03:26:41;14.90;99.90
11824;DHT22;5969;50.780;7.726;2023-08-06T03:29:08;14.90;99.90
11824;DHT22;5969;50.780;7.726;2023-08-06T03:31:35;14.90;99.90
11824;DHT22;5969;50.780;7.726;2023-08-06T03:34:01;15.00;99.90
11824;DHT22;5969;50.780;7.726;2023-08-06T03:36:29;15.10;99.90
11824;DHT22;5969;50.780;7.726;2023-08-06T03:38:56;15.00;99.90
11824;DHT22;5969;50.780;7.726;2023-08-06T03:41:23;15.00;99.90
11824;DHT22;5969;50.780;7.726;2023-08-06T03:43:50;14.90;99.90
11824;DHT22;5969;50.780;7.726;2023-08-06T03:46:19;14.90;99.90
11824;DHT22;5969;50.780;7.726;2023-08-06T03:48:46;14.90;99.90
11824;DHT22;5969;50.780;7.726;2023-08-06T03:51:12;14.90;99.90
11824;DHT22;5969;50.780;7.726;2023-08-06T03:53:41;14.90;99.90
11824;DHT22;5969;50.780;7.726;2023-08-06T03:56:07;14.90;99.90
11824;DHT22;5969;50.780;7.726;2023-08-06T03:58:34;14.80;99.90
11824;DHT22;5969;50.780;7.726;2023-08-06T04:01:02;14.90;99.90
11824;DHT22;5969;50.780;7.726;2023-08-06T04:03:29;14.90;99.90
11824;DHT22;5969;50.780;7.726;2023-08-06T04:05:56;15.00;99.90
11824;DHT22;5969;50.780;7.726;2023-08-06T04:08:23;15.00;99.90
11824;DHT22;5969;50.780;7.726;2023-08-06T04:10:52;15.00;99.90
11824;DHT22;5969;50.780;7.726;2023-08-06T04:13:19;15.00;99.90
11824;DHT22;5969;50.780;7.726;2023-08-06T04:15:46;15.00;99.90
11824;DHT22;5969;50.780;7.726;2023-08-06T04:18:13;15.10;99.90
11824;DHT22;5969;50.780;7.726;2023-08-06T04:20:43;15.00;99.90
11824;DHT22;5969;50.780;7.726;2023-08-06T04:23:11;14.90;99.90
11824;DHT22;5969;50.780;7.726;2023-08-06T04:25:38;14.90;99.90
11824;DHT22;5969;50.780;7.726;2023-08-06T04:28:06;14.90;99.90
11824;DHT22;5969;50.780;7.726;2023-08-06T04:30:33;15.00;99.90
11824;DHT22;5969;50.780;7.726;2023-08-06T04:33:00;15.00;99.90
11824;DHT22;5969;50.780;7.726;2023-08-06T04:35:27;15.00;99.90
11824;DHT22;5969;50.780;7.726;2023-08-06T04:37:53;15.00;99.90
11824;DHT22;5969;50.780;7.726;2023-08-06T04:40:20;15.00;99.90
11824;DHT22;5969;50.780;7.726;2023-08-06T04:42:47;15.10;99.90
11824;DHT22;5969;50.780;7.726;2023-08-06T04:45:15;15.00;99.90
11824;DHT22;5969;50.780;7.726;2023-08-06T04:47:42;15.10;99.90
11824;DHT22;5969;50.780;7.726;2023-08-06T04:50:09;15.10;99.90
11824;DHT22;5969;50.780;7.726;2023-08-06T04:52:37;15.10;99.90
11824;DHT22;5969;50.780;7.726;2023-08-06T04:55:04;15.10;99.90
11824;DHT22;5969;50.780;7.726;2023-08-06T04:57:31;15.00;99.90
11824;DHT22;5969;50.780;7.726;2023-08-06T04:59:58;14.90;99.90
11824;DHT22;5969;50.780;7.726;2023-08-06T05:02:26;14.90;99.90
11824;DHT22;5969;50.780;7.726;2023-08-06T05:04:53;14.90;99.90
11824;DHT22;5969;50.780;7.726;2023-08-06T05:07:20;14.90;99.90
11824;DHT22;5969;50.780;7.726;2023-08-06T05:09:47;14.90;99.90
11824;DHT22;5969;50.780;7.726;2023-08-06T05:12:14;14.80;99.90
11824;DHT22;5969;50.780;7.726;2023-08-06T05:14:40;14.80;99.90
11824;DHT22;5969;50.780;7.726;2023-08-06T05:17:07;14.80;99.90
11824;DHT22;5969;50.780;7.726;2023-08-06T05:19:38;14.70;99.90
11824;DHT22;5969;50.780;7.726;2023-08-06T05:22:05;14.70;99.90
11824;DHT22;5969;50.780;7.726;2023-08-06T05:24:32;14.70;99.90
11824;DHT22;5969;50.780;7.726;2023-08-06T05:26:59;14.90;99.90
11824;DHT22;5969;50.780;7.726;2023-08-06T05:29:26;14.80;99.90
11824;DHT22;5969;50.780;7.726;2023-08-06T05:31:53;14.90;99.90
11824;DHT22;5969;50.780;7.726;2023-08-06T05:34:20;14.90;99.90
11824;DHT22;5969;50.780;7.726;2023-08-06T05:36:48;14.90;99.90
11824;DHT22;5969;50.780;7.726;2023-08-06T05:39:15;15.00;99.90
11824;DHT22;5969;50.780;7.726;2023-08-06T05:41:42;15.00;99.90
11824;DHT22;5969;50.780;7.726;2023-08-06T05:44:08;14.90;99.90
11824;DHT22;5969;50.780;7.726;2023-08-06T05:46:35;14.90;99.90
11824;DHT22;5969;50.780;7.726;2023-08-06T05:49:02;14.80;99.90
11824;DHT22;5969;50.780;7.726;2023-08-06T05:51:30;14.90;99.90
11824;DHT22;5969;50.780;7.726;2023-08-06T05:53:58;14.90;99.90
11824;DHT22;5969;50.780;7.726;2023-08-06T05:56:25;14.80;99.90
11824;DHT22;5969;50.780;7.726;2023-08-06T05:58:52;14.80;99.90
11824;DHT22;5969;50.780;7.726;2023-08-06T06:01:19;14.90;99.90
11824;DHT22;5969;50.780;7.726;2023-08-06T06:03:45;14.90;99.90
11824;DHT22;5969;50.780;7.726;2023-08-06T06:06:13;14.80;99.90
11824;DHT22;5969;50.780;7.726;2023-08-06T06:08:41;14.90;99.90
11824;DHT22;5969;50.780;7.726;2023-08-06T06:11:09;14.80;99.90
11824;DHT22;5969;50.780;7.726;2023-08-06T06:13:36;15.00;99.90
11824;DHT22;5969;50.780;7.726;2023-08-06T06:16:06;15.10;99.90
11824;DHT22;5969;50.780;7.726;2023-08-06T06:18:33;15.10;99.90
11824;DHT22;5969;50.780;7.726;2023-08-06T06:21:00;15.10;99.90
11824;DHT22;5969;50.780;7.726;2023-08-06T06:23:26;15.10;99.90
11824;DHT22;5969;50.780;7.726;2023-08-06T06:25:53;15.00;99.90
11824;DHT22;5969;50.780;7.726;2023-08-06T06:28:22;14.90;99.90
11824;DHT22;5969;50.780;7.726;2023-08-06T06:30:49;14.80;99.90
11824;DHT22;5969;50.780;7.726;2023-08-06T06:33:16;14.90;99.90
11824;DHT22;5969;50.780;7.726;2023-08-06T06:35:43;14.80;99.90
11824;DHT22;5969;50.780;7.726;2023-08-06T06:38:13;15.00;99.90
11824;DHT22;5969;50.780;7.726;2023-08-06T06:40:40;15.00;99.90
11824;DHT22;5969;50.780;7.726;2023-08-06T06:43:07;15.00;99.90
11824;DHT22;5969;50.780;7.726;2023-08-06T06:45:35;15.30;99.90
11824;DHT22;5969;50.780;7.726;2023-08-06T06:48:02;15.20;99.90
11824;DHT22;5969;50.780;7.726;2023-08-06T06:50:29;15.40;99.90
11824;DHT22;5969;50.780;7.726;2023-08-06T06:52:56;15.30;99.90
11824;DHT22;5969;50.780;7.726;2023-08-06T06:55:23;15.40;99.90
11824;DHT22;5969;50.780;7.726;2023-08-06T06:57:49;15.30;99.90
11824;DHT22;5969;50.780;7.726;2023-08-06T07:00:16;15.40;99.90
11824;DHT22;5969;50.780;7.726;2023-08-06T07:02:44;15.30;99.90
11824;DHT22;5969;50.780;7.726;2023-08-06T07:05:11;15.50;99.90
11824;DHT22;5969;50.780;7.726;2023-08-06T07:07:38;15.40;99.90
11824;DHT22;5969;50.780;7.726;2023-08-06T07:10:08;15.40;99.90
11824;DHT22;5969;50.780;7.726;2023-08-06T07:12:36;15.40;99.90
11824;DHT22;5969;50.780;7.726;2023-08-06T07:15:04;15.40;99.90
11824;DHT22;5969;50.780;7.726;2023-08-06T07:17:31;15.50;99.90
11824;DHT22;5969;50.780;7.726;2023-08-06T07:19:59;15.50;99.90
11824;DHT22;5969;50.780;7.726;2023-08-06T07:22:26;15.40;99.90
11824;DHT22;5969;50.780;7.726;2023-08-06T07:24:53;15.40;99.90
11824;DHT22;5969;50.780;7.726;2023-08-06T07:27:19;15.40;99.90
11824;DHT22;5969;50.780;7.726;2023-08-06T07:29:46;15.40;99.90
11824;DHT22;5969;50.780;7.726;2023-08-06T07:32:13;15.40;99.90
11824;DHT22;5969;50.780;7.726;2023-08-06T07:34:40;15.40;99.90
11824;DHT22;5969;50.780;7.726;2023-08-06T07:37:08;15.40;99.90
11824;DHT22;5969;50.780;7.726;2023-08-06T07:39:35;15.30;99.90
11824;DHT22;5969;50.780;7.726;2023-08-06T07:42:04;15.10;99.90
11824;DHT22;5969;50.780;7.726;2023-08-06T07:44:32;15.10;99.90
11824;DHT22;5969;50.780;7.726;2023-08-06T07:46:59;15.20;99.90
11824;DHT22;5969;50.780;7.726;2023-08-06T07:49:26;15.20;99.90
11824;DHT22;5969;50.780;7.726;2023-08-06T07:51:53;15.30;99.90
11824;DHT22;5969;50.780;7.726;2023-08-06T07:54:21;15.10;99.90
11824;DHT22;5969;50.780;7.726;2023-08-06T07:56:49;14.90;99.90
11824;DHT22;5969;50.780;7.726;2023-08-06T07:59:16;14.80;99.90
11824;DHT22;5969;50.780;7.726;2023-08-06T08:01:43;14.50;99.90
11824;DHT22;5969;50.780;7.726;2023-08-06T08:04:10;14.40;99.90
11824;DHT22;5969;50.780;7.726;2023-08-06T08:06:37;14.30;99.90
11824;DHT22;5969;50.780;7.726;2023-08-06T08:09:03;14.20;99.90
11824;DHT22;5969;50.780;7.726;2023-08-06T08:11:32;14.10;99.90
11824;DHT22;5969;50.780;7.726;2023-08-06T08:13:58;14.10;99.90
11824;DHT22;5969;50.780;7.726;2023-08-06T08:16:25;14.10;99.90
11824;DHT22;5969;50.780;7.726;2023-08-06T08:18:52;14.00;99.90
11824;DHT22;5969;50.780;7.726;2023-08-06T08:21:19;14.00;99.90
11824;DHT22;5969;50.780;7.726;2023-08-06T08:23:46;14.10;99.90
11824;DHT22;5969;50.780;7.726;2023-08-06T08:26:12;14.00;99.90
11824;DHT22;5969;50.780;7.726;2023-08-06T08:28:41;14.10;99.90
11824;DHT22;5969;50.780;7.726;2023-08-06T08:31:08;14.10;99.90
11824;DHT22;5969;50.780;7.726;2023-08-06T08:33:36;14.00;99.90
11824;DHT22;5969;50.780;7.726;2023-08-06T08:36:03;13.90;99.90
11824;DHT22;5969;50.780;7.726;2023-08-06T08:38:30;13.90;99.90
11824;DHT22;5969;50.780;7.726;2023-08-06T08:40:57;13.90;99.90
11824;DHT22;5969;50.780;7.726;2023-08-06T08:43:24;14.00;99.90
11824;DHT22;5969;50.780;7.726;2023-08-06T08:45:54;14.00;99.90
11824;DHT22;5969;50.780;7.726;2023-08-06T08:48:24;14.30;99.90
11824;DHT22;5969;50.780;7.726;2023-08-06T08:50:52;14.30;99.90
11824;DHT22;5969;50.780;7.726;2023-08-06T08:53:21;14.30;99.90
11824;DHT22;5969;50.780;7.726;2023-08-06T08:55:49;14.50;99.90
11824;DHT22;5969;50.780;7.726;2023-08-06T08:58:16;14.70;99.90
11824;DHT22;5969;50.780;7.726;2023-08-06T09:00:42;14.70;99.90
11824;DHT22;5969;50.780;7.726;2023-08-06T09:03:11;14.70;99.90
11824;DHT22;5969;50.780;7.726;2023-08-06T09:05:41;14.90;99.90
11824;DHT22;5969;50.780;7.726;2023-08-06T09:08:11;15.00;99.90
11824;DHT22;5969;50.780;7.726;2023-08-06T09:10:41;14.90;99.90
11824;DHT22;5969;50.780;7.726;2023-08-06T09:13:09;14.90;99.90
11824;DHT22;5969;50.780;7.726;2023-08-06T09:15:38;15.10;99.90
11824;DHT22;5969;50.780;7.726;2023-08-06T09:18:11;15.30;99.90
11824;DHT22;5969;50.780;7.726;2023-08-06T09:20:38;15.30;99.90
11824;DHT22;5969;50.780;7.726;2023-08-06T09:23:07;15.30;99.90
11824;DHT22;5969;50.780;7.726;2023-08-06T09:25:38;15.30;99.90
11824;DHT22;5969;50.780;7.726;2023-08-06T09:28:05;15.30;99.90
11824;DHT22;5969;50.780;7.726;2023-08-06T09:30:35;15.20;99.90
11824;DHT22;5969;50.780;7.726;2023-08-06T09:33:02;15.40;99.90
11824;DHT22;5969;50.780;7.726;2023-08-06T09:35:31;15.40;99.90
11824;DHT22;5969;50.780;7.726;2023-08-06T09:38:05;15.50;99.90
11824;DHT22;5969;50.780;7.726;2023-08-06T09:40:33;15.70;99.90
11824;DHT22;5969;50.780;7.726;2023-08-06T09:43:00;15.60;99.90
11824;DHT22;5969;50.780;7.726;2023-08-06T09:45:30;15.80;99.90
11824;DHT22;5969;50.780;7.726;2023-08-06T09:48:00;16.20;99.90
11824;DHT22;5969;50.780;7.726;2023-08-06T09:50:34;16.50;99.90
11824;DHT22;5969;50.780;7.726;2023-08-06T09:53:03;16.70;99.90
11824;DHT22;5969;50.780;7.726;2023-08-06T09:55:30;17.00;99.90
11824;DHT22;5969;50.780;7.726;2023-08-06T09:57:58;17.00;99.90
11824;DHT22;5969;50.780;7.726;2023-08-06T10:00:25;17.00;99.90
11824;DHT22;5969;50.780;7.726;2023-08-06T10:02:53;16.90;99.90
11824;DHT22;5969;50.780;7.726;2023-08-06T10:05:21;16.60;99.90
11824;DHT22;5969;50.780;7.726;2023-08-06T10:07:50;16.70;99.90
11824;DHT22;5969;50.780;7.726;2023-08-06T10:10:18;16.50;99.90
11824;DHT22;5969;50.780;7.726;2023-08-06T10:12:47;16.40;99.90
11824;DHT22;5969;50.780;7.726;2023-08-06T10:15:17;15.60;99.90
11824;DHT22;5969;50.780;7.726;2023-08-06T10:17:48;15.40;99.90
11824;DHT22;5969;50.780;7.726;2023-08-06T10:20:17;15.40;99.90
11824;DHT22;5969;50.780;7.726;2023-08-06T10:22:46;15.40;99.90
11824;DHT22;5969;50.780;7.726;2023-08-06T10:25:30;15.30;99.90
11824;DHT22;5969;50.780;7.726;2023-08-06T10:27:58;15.30;99.90
11824;DHT22;5969;50.780;7.726;2023-08-06T10:30:26;15.30;99.90
11824;DHT22;5969;50.780;7.726;2023-08-06T10:32:55;15.20;99.90
11824;DHT22;5969;50.780;7.726;2023-08-06T10:35:35;15.00;99.90
11824;DHT22;5969;50.780;7.726;2023-08-06T10:38:07;15.00;99.90
11824;DHT22;5969;50.780;7.726;2023-08-06T10:40:36;15.00;99.90
11824;DHT22;5969;50.780;7.726;2023-08-06T10:43:04;15.20;99.90
11824;DHT22;5969;50.780;7.726;2023-08-06T10:45:34;15.40;99.90
11824;DHT22;5969;50.780;7.726;2023-08-06T10:48:01;15.50;99.90
11824;DHT22;5969;50.780;7.726;2023-08-06T10:50:28;15.60;99.90
11824;DHT22;5969;50.780;7.726;2023-08-06T10:52:57;15.80;99.90
11824;DHT22;5969;50.780;7.726;2023-08-06T10:55:25;16.00;99.90
11824;DHT22;5969;50.780;7.726;2023-08-06T10:57:54;16.00;99.90
11824;DHT22;5969;50.780;7.726;2023-08-06T11:00:22;15.80;99.90
11824;DHT22;5969;50.780;7.726;2023-08-06T11:02:49;15.80;99.90
11824;DHT22;5969;50.780;7.726;2023-08-06T11:05:16;15.70;99.90
11824;DHT22;5969;50.780;7.726;2023-08-06T11:07:43;15.40;99.90
11824;DHT22;5969;50.780;7.726;2023-08-06T11:10:12;15.10;99.90
11824;DHT22;5969;50.780;7.726;2023-08-06T11:12:39;15.00;99.90
11824;DHT22;5969;50.780;7.726;2023-08-06T11:15:08;15.00;99.90
11824;DHT22;5969;50.780;7.726;2023-08-06T11:17:36;14.80;99.90
11824;DHT22;5969;50.780;7.726;2023-08-06T11:20:04;14.60;99.90
11824;DHT22;5969;50.780;7.726;2023-08-06T11:22:32;14.50;99.90
11824;DHT22;5969;50.780;7.726;2023-08-06T11:24:58;14.30;99.90
11824;DHT22;5969;50.780;7.726;2023-08-06T11:27:26;14.30;99.90
11824;DHT22;5969;50.780;7.726;2023-08-06T11:29:53;14.20;99.90
11824;DHT22;5969;50.780;7.726;2023-08-06T11:32:21;14.00;99.90
11824;DHT22;5969;50.780;7.726;2023-08-06T11:34:48;13.80;99.90
11824;DHT22;5969;50.780;7.726;2023-08-06T11:37:15;13.70;99.90
11824;DHT22;5969;50.780;7.726;2023-08-06T11:39:46;13.50;99.90
11824;DHT22;5969;50.780;7.726;2023-08-06T11:42:13;13.30;99.90
11824;DHT22;5969;50.780;7.726;2023-08-06T11:44:41;13.20;99.90
11824;DHT22;5969;50.780;7.726;2023-08-06T11:47:13;13.20;99.90
11824;DHT22;5969;50.780;7.726;2023-08-06T11:49:42;13.20;99.90
11824;DHT22;5969;50.780;7.726;2023-08-06T11:52:13;13.20;99.90
11824;DHT22;5969;50.780;7.726;2023-08-06T11:54:40;13.10;99.90
11824;DHT22;5969;50.780;7.726;2023-08-06T11:57:15;13.10;99.90
11824;DHT22;5969;50.780;7.726;2023-08-06T11:59:56;13.70;99.90
11824;DHT22;5969;50.780;7.726;2023-08-06T12:02:25;13.50;99.90
11824;DHT22;5969;50.780;7.726;2023-08-06T12:05:14;13.70;99.90
11824;DHT22;5969;50.780;7.726;2023-08-06T12:07:43;13.70;99.90
11824;DHT22;5969;50.780;7.726;2023-08-06T12:10:11;13.80;99.90
11824;DHT22;5969;50.780;7.726;2023-08-06T12:12:38;13.80;99.90
11824;DHT22;5969;50.780;7.726;2023-08-06T12:15:07;13.80;99.90
11824;DHT22;5969;50.780;7.726;2023-08-06T12:17:35;13.80;99.90
11824;DHT22;5969;50.780;7.726;2023-08-06T12:20:03;13.80;99.90
11824;DHT22;5969;50.780;7.726;2023-08-06T12:22:33;13.80;99.90
11824;DHT22;5969;50.780;7.726;2023-08-06T12:25:01;13.80;99.90
11824;DHT22;5969;50.780;7.726;2023-08-06T12:27:29;13.80;99.90
11824;DHT22;5969;50.780;7.726;2023-08-06T12:29:56;13.80;99.90
11824;DHT22;5969;50.780;7.726;2023-08-06T12:32:24;13.90;99.90
11824;DHT22;5969;50.780;7.726;2023-08-06T12:34:51;13.90;99.90
11824;DHT22;5969;50.780;7.726;2023-08-06T12:37:18;14.00;99.90
11824;DHT22;5969;50.780;7.726;2023-08-06T12:39:47;14.00;99.90
11824;DHT22;5969;50.780;7.726;2023-08-06T12:42:14;14.10;99.90
11824;DHT22;5969;50.780;7.726;2023-08-06T12:44:41;14.10;99.90
11824;DHT22;5969;50.780;7.726;2023-08-06T12:47:08;14.10;99.90
11824;DHT22;5969;50.780;7.726;2023-08-06T12:49:35;14.00;99.90
11824;DHT22;5969;50.780;7.726;2023-08-06T12:52:02;14.00;99.90
11824;DHT22;5969;50.780;7.726;2023-08-06T12:54:31;14.00;99.90
11824;DHT22;5969;50.780;7.726;2023-08-06T12:57:04;14.00;99.90
11824;DHT22;5969;50.780;7.726;2023-08-06T12:59:31;14.10;99.90
11824;DHT22;5969;50.780;7.726;2023-08-06T13:01:59;14.00;99.90
11824;DHT22;5969;50.780;7.726;2023-08-06T13:04:26;14.00;99.90
11824;DHT22;5969;50.780;7.726;2023-08-06T13:06:54;14.00;99.90
11824;DHT22;5969;50.780;7.726;2023-08-06T13:09:21;14.00;99.90
11824;DHT22;5969;50.780;7.726;2023-08-06T13:11:48;14.10;99.90
11824;DHT22;5969;50.780;7.726;2023-08-06T13:14:17;14.10;99.90
11824;DHT22;5969;50.780;7.726;2023-08-06T13:16:44;14.00;99.90
11824;DHT22;5969;50.780;7.726;2023-08-06T13:19:22;14.00;99.90
11824;DHT22;5969;50.780;7.726;2023-08-06T13:21:59;14.00;99.90
11824;DHT22;5969;50.780;7.726;2023-08-06T13:24:27;14.10;99.90
11824;DHT22;5969;50.780;7.726;2023-08-06T13:26:55;14.20;99.90
11824;DHT22;5969;50.780;7.726;2023-08-06T13:29:24;14.20;99.90
11824;DHT22;5969;50.780;7.726;2023-08-06T13:31:51;14.20;99.90
11824;DHT22;5969;50.780;7.726;2023-08-06T13:34:18;14.10;99.90
11824;DHT22;5969;50.780;7.726;2023-08-06T13:36:45;14.20;99.90
11824;DHT22;5969;50.780;7.726;2023-08-06T13:39:12;14.20;99.90
11824;DHT22;5969;50.780;7.726;2023-08-06T13:41:42;14.30;99.90
11824;DHT22;5969;50.780;7.726;2023-08-06T13:44:16;14.30;99.90
11824;DHT22;5969;50.780;7.726;2023-08-06T13:46:45;14.30;99.90
11824;DHT22;5969;50.780;7.726;2023-08-06T13:49:12;14.30;99.90
11824;DHT22;5969;50.780;7.726;2023-08-06T13:51:39;14.40;99.90
11824;DHT22;5969;50.780;7.726;2023-08-06T13:54:06;14.40;99.90
11824;DHT22;5969;50.780;7.726;2023-08-06T13:56:35;14.40;99.90
11824;DHT22;5969;50.780;7.726;2023-08-06T13:59:03;14.30;99.90
11824;DHT22;5969;50.780;7.726;2023-08-06T14:01:30;14.30;99.90
11824;DHT22;5969;50.780;7.726;2023-08-06T14:03:59;14.30;99.90
11824;DHT22;5969;50.780;7.726;2023-08-06T14:06:26;14.40;99.90
11824;DHT22;5969;50.780;7.726;2023-08-06T14:08:53;14.50;99.90
11824;DHT22;5969;50.780;7.726;2023-08-06T14:11:20;14.50;99.90
11824;DHT22;5969;50.780;7.726;2023-08-06T14:13:47;14.50;99.90
11824;DHT22;5969;50.780;7.726;2023-08-06T14:16:14;14.50;99.90
11824;DHT22;5969;50.780;7.726;2023-08-06T14:18:41;14.60;99.90
11824;DHT22;5969;50.780;7.726;2023-08-06T14:21:10;14.60;99.90
11824;DHT22;5969;50.780;7.726;2023-08-06T14:23:36;14.60;99.90
11824;DHT22;5969;50.780;7.726;2023-08-06T14:26:03;14.60;99.90
11824;DHT22;5969;50.780;7.726;2023-08-06T14:28:30;14.60;99.90
11824;DHT22;5969;50.780;7.726;2023-08-06T14:30:58;14.70;99.90
11824;DHT22;5969;50.780;7.726;2023-08-06T14:33:25;14.70;99.90
11824;DHT22;5969;50.780;7.726;2023-08-06T14:35:54;14.60;99.90
11824;DHT22;5969;50.780;7.726;2023-08-06T14:38:26;14.60;99.90
11824;DHT22;5969;50.780;7.726;2023-08-06T14:40:53;14.60;99.90
11824;DHT22;5969;50.780;7.726;2023-08-06T14:43:20;14.50;99.90
11824;DHT22;5969;50.780;7.726;2023-08-06T14:45:47;14.50;99.90
11824;DHT22;5969;50.780;7.726;2023-08-06T14:48:27;14.60;99.90
11824;DHT22;5969;50.780;7.726;2023-08-06T14:50:54;14.60;99.90
11824;DHT22;5969;50.780;7.726;2023-08-06T14:53:25;14.30;99.90
11824;DHT22;5969;50.780;7.726;2023-08-06T14:55:53;14.50;99.90
11824;DHT22;5969;50.780;7.726;2023-08-06T14:58:20;14.50;99.90
11824;DHT22;5969;50.780;7.726;2023-08-06T15:00:48;14.30;99.90
11824;DHT22;5969;50.780;7.726;2023-08-06T15:03:15;14.40;99.90
11824;DHT22;5969;50.780;7.726;2023-08-06T15:05:43;14.40;99.90
11824;DHT22;5969;50.780;7.726;2023-08-06T15:08:10;14.40;99.90
11824;DHT22;5969;50.780;7.726;2023-08-06T15:10:39;14.40;99.90
11824;DHT22;5969;50.780;7.726;2023-08-06T15:13:06;14.40;99.90
11824;DHT22;5969;50.780;7.726;2023-08-06T15:15:33;14.40;99.90
11824;DHT22;5969;50.780;7.726;2023-08-06T15:18:00;14.40;99.90
11824;DHT22;5969;50.780;7.726;2023-08-06T15:20:27;14.50;99.90
11824;DHT22;5969;50.780;7.726;2023-08-06T15:22:54;14.60;99.90
11824;DHT22;5969;50.780;7.726;2023-08-06T15:25:23;14.60;99.90
11824;DHT22;5969;50.780;7.726;2023-08-06T15:27:52;14.30;99.90
11824;DHT22;5969;50.780;7.726;2023-08-06T15:30:19;14.60;99.90
11824;DHT22;5969;50.780;7.726;2023-08-06T15:32:47;14.60;99.90
11824;DHT22;5969;50.780;7.726;2023-08-06T15:35:14;14.60;99.90
11824;DHT22;5969;50.780;7.726;2023-08-06T15:37:44;14.50;99.90
11824;DHT22;5969;50.780;7.726;2023-08-06T15:40:14;14.50;99.90
11824;DHT22;5969;50.780;7.726;2023-08-06T15:42:56;14.50;99.90
11824;DHT22;5969;50.780;7.726;2023-08-06T15:45:24;14.50;99.90
11824;DHT22;5969;50.780;7.726;2023-08-06T15:47:52;14.50;99.90
11824;DHT22;5969;50.780;7.726;2023-08-06T15:50:19;14.50;99.90